sensor_id;sensor_type;location;lat;lon;timestamp;P1;durP1;ratioP1;P2;durP2;ratioP2
70078;SDS011;57451;52.496;13.456;2023-01-08T00:01:29;6.90;;;3.88;;
70078;SDS011;57451;52.496;13.456;2023-01-08T00:03:56;6.03;;;3.57;;
70078;SDS011;57451;52.496;13.456;2023-01-08T00:06:23;8.65;;;4.10;;
70078;SDS011;57451;52.496;13.456;2023-01-08T00:08:51;7.82;;;3.78;;
70078;SDS011;57451;52.496;13.456;2023-01-08T00:11:18;7.75;;;4.07;;
70078;SDS011;57451;52.496;13.456;2023-01-08T00:13:45;6.68;;;3.70;;
70078;SDS011;57451;52.496;13.456;2023-01-08T00:16:15;7.30;;;3.80;;
70078;SDS011;57451;52.496;13.456;2023-01-08T00:18:43;6.45;;;3.70;;
70078;SDS011;57451;52.496;13.456;2023-01-08T00:21:11;7.90;;;3.78;;
70078;SDS011;57451;52.496;13.456;2023-01-08T00:23:38;6.78;;;3.78;;
70078;SDS011;57451;52.496;13.456;2023-01-08T00:26:07;7.45;;;4.00;;
70078;SDS011;57451;52.496;13.456;2023-01-08T00:28:35;5.70;;;3.27;;
70078;SDS011;57451;52.496;13.456;2023-01-08T00:31:03;7.10;;;3.88;;
70078;SDS011;57451;52.496;13.456;2023-01-08T00:33:33;7.45;;;3.97;;
70078;SDS011;57451;52.496;13.456;2023-01-08T00:36:05;8.90;;;3.90;;
70078;SDS011;57451;52.496;13.456;2023-01-08T00:38:33;7.00;;;3.75;;
70078;SDS011;57451;52.496;13.456;2023-01-08T00:41:00;6.77;;;3.73;;
70078;SDS011;57451;52.496;13.456;2023-01-08T00:43:27;8.02;;;3.95;;
70078;SDS011;57451;52.496;13.456;2023-01-08T00:45:55;7.65;;;3.90;;
70078;SDS011;57451;52.496;13.456;2023-01-08T00:48:22;7.00;;;4.30;;
70078;SDS011;57451;52.496;13.456;2023-01-08T00:50:52;9.20;;;4.40;;
70078;SDS011;57451;52.496;13.456;2023-01-08T00:53:20;7.67;;;4.00;;
70078;SDS011;57451;52.496;13.456;2023-01-08T00:55:48;7.70;;;3.95;;
70078;SDS011;57451;52.496;13.456;2023-01-08T00:58:15;8.27;;;4.03;;
70078;SDS011;57451;52.496;13.456;2023-01-08T01:00:43;6.85;;;3.88;;
70078;SDS011;57451;52.496;13.456;2023-01-08T01:03:10;7.05;;;3.38;;
70078;SDS011;57451;52.496;13.456;2023-01-08T01:05:37;8.17;;;4.00;;
70078;SDS011;57451;52.496;13.456;2023-01-08T01:08:06;7.45;;;4.18;;
70078;SDS011;57451;52.496;13.456;2023-01-08T01:10:33;8.13;;;4.22;;
70078;SDS011;57451;52.496;13.456;2023-01-08T01:13:00;9.02;;;4.07;;
70078;SDS011;57451;52.496;13.456;2023-01-08T01:15:27;8.10;;;4.03;;
70078;SDS011;57451;52.496;13.456;2023-01-08T01:17:55;7.20;;;4.40;;
70078;SDS011;57451;52.496;13.456;2023-01-08T01:20:22;8.15;;;3.85;;
70078;SDS011;57451;52.496;13.456;2023-01-08T01:22:49;7.28;;;4.13;;
70078;SDS011;57451;52.496;13.456;2023-01-08T01:25:18;8.73;;;4.28;;
70078;SDS011;57451;52.496;13.456;2023-01-08T01:27:45;8.52;;;4.13;;
70078;SDS011;57451;52.496;13.456;2023-01-08T01:30:12;6.57;;;4.03;;
70078;SDS011;57451;52.496;13.456;2023-01-08T01:32:40;6.45;;;4.00;;
70078;SDS011;57451;52.496;13.456;2023-01-08T01:35:07;7.93;;;4.20;;
70078;SDS011;57451;52.496;13.456;2023-01-08T01:37:35;9.35;;;4.55;;
70078;SDS011;57451;52.496;13.456;2023-01-08T01:40:02;9.48;;;4.80;;
70078;SDS011;57451;52.496;13.456;2023-01-08T01:42:32;8.80;;;4.33;;
70078;SDS011;57451;52.496;13.456;2023-01-08T01:45:11;9.25;;;4.78;;
70078;SDS011;57451;52.496;13.456;2023-01-08T01:47:41;8.40;;;4.57;;
70078;SDS011;57451;52.496;13.456;2023-01-08T01:50:12;8.20;;;4.43;;
70078;SDS011;57451;52.496;13.456;2023-01-08T01:52:44;8.52;;;4.88;;
70078;SDS011;57451;52.496;13.456;2023-01-08T01:55:14;9.43;;;5.20;;
70078;SDS011;57451;52.496;13.456;2023-01-08T01:57:45;8.38;;;5.13;;
70078;SDS011;57451;52.496;13.456;2023-01-08T02:00:16;9.60;;;5.28;;
70078;SDS011;57451;52.496;13.456;2023-01-08T02:02:44;9.48;;;4.82;;
70078;SDS011;57451;52.496;13.456;2023-01-08T02:05:11;7.93;;;4.80;;
70078;SDS011;57451;52.496;13.456;2023-01-08T02:07:39;8.63;;;5.10;;
70078;SDS011;57451;52.496;13.456;2023-01-08T02:10:15;8.70;;;5.10;;
70078;SDS011;57451;52.496;13.456;2023-01-08T02:12:49;8.45;;;5.10;;
70078;SDS011;57451;52.496;13.456;2023-01-08T02:15:23;9.85;;;5.03;;
70078;SDS011;57451;52.496;13.456;2023-01-08T02:17:57;8.10;;;4.88;;
70078;SDS011;57451;52.496;13.456;2023-01-08T02:20:31;10.13;;;4.77;;
70078;SDS011;57451;52.496;13.456;2023-01-08T02:23:07;7.45;;;4.60;;
70078;SDS011;57451;52.496;13.456;2023-01-08T02:26:03;8.38;;;4.53;;
70078;SDS011;57451;52.496;13.456;2023-01-08T02:28:35;7.80;;;4.70;;
70078;SDS011;57451;52.496;13.456;2023-01-08T02:31:06;9.00;;;5.03;;
70078;SDS011;57451;52.496;13.456;2023-01-08T02:33:34;9.07;;;5.10;;
70078;SDS011;57451;52.496;13.456;2023-01-08T02:38:55;8.85;;;4.90;;
70078;SDS011;57451;52.496;13.456;2023-01-08T02:41:38;8.90;;;5.05;;
70078;SDS011;57451;52.496;13.456;2023-01-08T02:44:19;9.50;;;5.07;;
70078;SDS011;57451;52.496;13.456;2023-01-08T02:46:51;7.83;;;4.80;;
70078;SDS011;57451;52.496;13.456;2023-01-08T02:49:22;8.75;;;4.22;;
70078;SDS011;57451;52.496;13.456;2023-01-08T02:51:53;9.82;;;4.93;;
70078;SDS011;57451;52.496;13.456;2023-01-08T02:54:24;9.32;;;5.15;;
70078;SDS011;57451;52.496;13.456;2023-01-08T02:56:56;8.73;;;4.93;;
70078;SDS011;57451;52.496;13.456;2023-01-08T02:59:26;7.97;;;4.97;;
70078;SDS011;57451;52.496;13.456;2023-01-08T03:01:57;11.23;;;5.80;;
70078;SDS011;57451;52.496;13.456;2023-01-08T03:04:25;8.45;;;5.10;;
70078;SDS011;57451;52.496;13.456;2023-01-08T03:06:56;10.27;;;5.68;;
70078;SDS011;57451;52.496;13.456;2023-01-08T03:09:23;8.57;;;5.25;;
70078;SDS011;57451;52.496;13.456;2023-01-08T03:11:52;10.07;;;5.53;;
70078;SDS011;57451;52.496;13.456;2023-01-08T03:14:26;8.95;;;5.13;;
70078;SDS011;57451;52.496;13.456;2023-01-08T03:16:58;8.75;;;5.40;;
70078;SDS011;57451;52.496;13.456;2023-01-08T03:19:32;10.38;;;5.65;;
70078;SDS011;57451;52.496;13.456;2023-01-08T03:22:04;8.43;;;4.85;;
70078;SDS011;57451;52.496;13.456;2023-01-08T03:24:35;9.43;;;5.40;;
70078;SDS011;57451;52.496;13.456;2023-01-08T03:27:06;9.75;;;5.57;;
70078;SDS011;57451;52.496;13.456;2023-01-08T03:29:41;9.80;;;5.82;;
70078;SDS011;57451;52.496;13.456;2023-01-08T03:32:10;10.35;;;5.40;;
70078;SDS011;57451;52.496;13.456;2023-01-08T03:34:40;10.25;;;5.53;;
70078;SDS011;57451;52.496;13.456;2023-01-08T03:37:09;12.80;;;5.43;;
70078;SDS011;57451;52.496;13.456;2023-01-08T03:39:40;9.38;;;5.13;;
70078;SDS011;57451;52.496;13.456;2023-01-08T03:42:10;10.57;;;5.57;;
70078;SDS011;57451;52.496;13.456;2023-01-08T03:44:41;9.10;;;5.65;;
70078;SDS011;57451;52.496;13.456;2023-01-08T03:47:09;9.95;;;5.90;;
70078;SDS011;57451;52.496;13.456;2023-01-08T03:49:37;9.57;;;5.27;;
70078;SDS011;57451;52.496;13.456;2023-01-08T03:52:07;10.45;;;5.55;;
70078;SDS011;57451;52.496;13.456;2023-01-08T03:54:35;10.77;;;6.15;;
70078;SDS011;57451;52.496;13.456;2023-01-08T03:57:03;8.80;;;5.68;;
70078;SDS011;57451;52.496;13.456;2023-01-08T03:59:30;9.18;;;5.50;;
70078;SDS011;57451;52.496;13.456;2023-01-08T04:01:58;8.53;;;5.53;;
70078;SDS011;57451;52.496;13.456;2023-01-08T04:04:26;9.20;;;5.50;;
70078;SDS011;57451;52.496;13.456;2023-01-08T04:06:53;9.88;;;5.80;;
70078;SDS011;57451;52.496;13.456;2023-01-08T04:09:20;10.35;;;5.25;;
70078;SDS011;57451;52.496;13.456;2023-01-08T04:11:47;10.63;;;6.03;;
70078;SDS011;57451;52.496;13.456;2023-01-08T04:14:15;9.93;;;5.83;;
70078;SDS011;57451;52.496;13.456;2023-01-08T04:16:42;9.68;;;5.55;;
70078;SDS011;57451;52.496;13.456;2023-01-08T04:19:11;9.35;;;5.57;;
70078;SDS011;57451;52.496;13.456;2023-01-08T04:21:38;11.05;;;6.03;;
70078;SDS011;57451;52.496;13.456;2023-01-08T04:24:06;11.10;;;5.65;;
70078;SDS011;57451;52.496;13.456;2023-01-08T04:26:33;11.13;;;6.03;;
70078;SDS011;57451;52.496;13.456;2023-01-08T04:29:00;9.57;;;6.10;;
70078;SDS011;57451;52.496;13.456;2023-01-08T04:31:28;9.63;;;5.65;;
70078;SDS011;57451;52.496;13.456;2023-01-08T04:33:55;9.07;;;5.65;;
70078;SDS011;57451;52.496;13.456;2023-01-08T04:36:24;10.02;;;5.57;;
70078;SDS011;57451;52.496;13.456;2023-01-08T04:38:51;9.23;;;6.00;;
70078;SDS011;57451;52.496;13.456;2023-01-08T04:41:18;9.77;;;5.90;;
70078;SDS011;57451;52.496;13.456;2023-01-08T04:43:45;12.02;;;6.10;;
70078;SDS011;57451;52.496;13.456;2023-01-08T04:46:13;9.95;;;5.82;;
70078;SDS011;57451;52.496;13.456;2023-01-08T04:48:40;10.35;;;5.95;;
70078;SDS011;57451;52.496;13.456;2023-01-08T04:51:07;9.90;;;5.53;;
70078;SDS011;57451;52.496;13.456;2023-01-08T04:53:36;10.40;;;5.65;;
70078;SDS011;57451;52.496;13.456;2023-01-08T04:56:05;10.13;;;5.70;;
70078;SDS011;57451;52.496;13.456;2023-01-08T04:58:34;9.65;;;5.82;;
70078;SDS011;57451;52.496;13.456;2023-01-08T05:01:07;9.45;;;5.88;;
70078;SDS011;57451;52.496;13.456;2023-01-08T05:03:36;9.93;;;5.50;;
70078;SDS011;57451;52.496;13.456;2023-01-08T05:06:03;9.88;;;6.03;;
70078;SDS011;57451;52.496;13.456;2023-01-08T05:08:31;8.93;;;5.88;;
70078;SDS011;57451;52.496;13.456;2023-01-08T05:10:59;12.52;;;6.28;;
70078;SDS011;57451;52.496;13.456;2023-01-08T05:13:27;9.60;;;5.90;;
70078;SDS011;57451;52.496;13.456;2023-01-08T05:15:57;11.13;;;6.37;;
70078;SDS011;57451;52.496;13.456;2023-01-08T05:18:25;13.00;;;6.07;;
70078;SDS011;57451;52.496;13.456;2023-01-08T05:20:53;11.07;;;6.28;;
70078;SDS011;57451;52.496;13.456;2023-01-08T05:23:20;12.75;;;5.50;;
70078;SDS011;57451;52.496;13.456;2023-01-08T05:25:47;9.63;;;5.53;;
70078;SDS011;57451;52.496;13.456;2023-01-08T05:28:16;11.73;;;6.33;;
70078;SDS011;57451;52.496;13.456;2023-01-08T05:30:43;10.75;;;6.00;;
70078;SDS011;57451;52.496;13.456;2023-01-08T05:33:10;10.02;;;5.75;;
70078;SDS011;57451;52.496;13.456;2023-01-08T05:35:38;9.57;;;5.90;;
70078;SDS011;57451;52.496;13.456;2023-01-08T05:38:05;10.25;;;5.57;;
70078;SDS011;57451;52.496;13.456;2023-01-08T05:40:33;11.57;;;5.83;;
70078;SDS011;57451;52.496;13.456;2023-01-08T05:43:00;9.20;;;5.45;;
70078;SDS011;57451;52.496;13.456;2023-01-08T05:45:29;9.63;;;5.68;;
70078;SDS011;57451;52.496;13.456;2023-01-08T05:47:56;11.07;;;5.75;;
70078;SDS011;57451;52.496;13.456;2023-01-08T05:50:24;9.55;;;5.43;;
70078;SDS011;57451;52.496;13.456;2023-01-08T05:52:51;11.00;;;5.97;;
70078;SDS011;57451;52.496;13.456;2023-01-08T05:55:19;10.30;;;6.10;;
70078;SDS011;57451;52.496;13.456;2023-01-08T05:57:46;10.15;;;6.00;;
70078;SDS011;57451;52.496;13.456;2023-01-08T06:00:13;10.77;;;5.82;;
70078;SDS011;57451;52.496;13.456;2023-01-08T06:02:45;9.98;;;5.70;;
70078;SDS011;57451;52.496;13.456;2023-01-08T06:05:13;9.77;;;5.97;;
70078;SDS011;57451;52.496;13.456;2023-01-08T06:07:41;11.10;;;5.90;;
70078;SDS011;57451;52.496;13.456;2023-01-08T06:10:08;10.65;;;5.65;;
70078;SDS011;57451;52.496;13.456;2023-01-08T06:12:35;9.13;;;5.93;;
70078;SDS011;57451;52.496;13.456;2023-01-08T06:15:03;10.25;;;5.47;;
70078;SDS011;57451;52.496;13.456;2023-01-08T06:17:31;9.50;;;5.63;;
70078;SDS011;57451;52.496;13.456;2023-01-08T06:20:01;9.50;;;5.68;;
70078;SDS011;57451;52.496;13.456;2023-01-08T06:22:28;10.07;;;5.72;;
70078;SDS011;57451;52.496;13.456;2023-01-08T06:24:58;9.57;;;5.97;;
70078;SDS011;57451;52.496;13.456;2023-01-08T06:27:25;8.73;;;5.82;;
70078;SDS011;57451;52.496;13.456;2023-01-08T06:29:53;10.20;;;5.50;;
70078;SDS011;57451;52.496;13.456;2023-01-08T06:32:20;10.48;;;5.97;;
70078;SDS011;57451;52.496;13.456;2023-01-08T06:34:47;8.95;;;5.15;;
70078;SDS011;57451;52.496;13.456;2023-01-08T06:37:16;9.75;;;5.88;;
70078;SDS011;57451;52.496;13.456;2023-01-08T06:39:43;9.73;;;5.63;;
70078;SDS011;57451;52.496;13.456;2023-01-08T06:42:10;9.97;;;5.57;;
70078;SDS011;57451;52.496;13.456;2023-01-08T06:44:37;9.65;;;5.22;;
70078;SDS011;57451;52.496;13.456;2023-01-08T06:47:05;9.60;;;5.45;;
70078;SDS011;57451;52.496;13.456;2023-01-08T06:49:32;9.48;;;5.40;;
70078;SDS011;57451;52.496;13.456;2023-01-08T06:51:59;8.02;;;4.93;;
70078;SDS011;57451;52.496;13.456;2023-01-08T06:54:28;7.73;;;5.17;;
70078;SDS011;57451;52.496;13.456;2023-01-08T06:56:55;8.52;;;5.22;;
70078;SDS011;57451;52.496;13.456;2023-01-08T06:59:22;8.57;;;5.45;;
70078;SDS011;57451;52.496;13.456;2023-01-08T07:01:49;9.25;;;4.90;;
70078;SDS011;57451;52.496;13.456;2023-01-08T07:04:17;9.63;;;4.53;;
70078;SDS011;57451;52.496;13.456;2023-01-08T07:06:44;8.27;;;4.60;;
70078;SDS011;57451;52.496;13.456;2023-01-08T07:09:12;7.72;;;4.57;;
70078;SDS011;57451;52.496;13.456;2023-01-08T07:11:42;7.53;;;4.50;;
70078;SDS011;57451;52.496;13.456;2023-01-08T07:14:09;7.90;;;4.20;;
70078;SDS011;57451;52.496;13.456;2023-01-08T07:16:36;9.52;;;4.57;;
70078;SDS011;57451;52.496;13.456;2023-01-08T07:19:03;8.27;;;4.50;;
70078;SDS011;57451;52.496;13.456;2023-01-08T07:21:31;7.75;;;4.57;;
70078;SDS011;57451;52.496;13.456;2023-01-08T07:23:58;7.70;;;4.57;;
70078;SDS011;57451;52.496;13.456;2023-01-08T07:26:25;9.38;;;4.32;;
70078;SDS011;57451;52.496;13.456;2023-01-08T07:28:54;7.82;;;4.32;;
70078;SDS011;57451;52.496;13.456;2023-01-08T07:31:22;8.10;;;4.40;;
70078;SDS011;57451;52.496;13.456;2023-01-08T07:33:49;6.45;;;3.75;;
70078;SDS011;57451;52.496;13.456;2023-01-08T07:36:16;7.57;;;4.65;;
70078;SDS011;57451;52.496;13.456;2023-01-08T07:38:48;8.50;;;4.63;;
70078;SDS011;57451;52.496;13.456;2023-01-08T07:41:15;7.72;;;4.32;;
70078;SDS011;57451;52.496;13.456;2023-01-08T07:43:43;7.40;;;4.10;;
70078;SDS011;57451;52.496;13.456;2023-01-08T07:46:13;7.38;;;4.18;;
70078;SDS011;57451;52.496;13.456;2023-01-08T07:48:41;7.72;;;4.32;;
70078;SDS011;57451;52.496;13.456;2023-01-08T07:51:08;7.40;;;4.10;;
70078;SDS011;57451;52.496;13.456;2023-01-08T07:53:36;7.70;;;4.32;;
70078;SDS011;57451;52.496;13.456;2023-01-08T07:56:04;8.17;;;4.43;;
70078;SDS011;57451;52.496;13.456;2023-01-08T07:58:33;7.03;;;4.35;;
70078;SDS011;57451;52.496;13.456;2023-01-08T08:01:01;8.73;;;4.20;;
70078;SDS011;57451;52.496;13.456;2023-01-08T08:06:34;7.50;;;4.10;;
70078;SDS011;57451;52.496;13.456;2023-01-08T08:09:01;7.57;;;4.23;;
70078;SDS011;57451;52.496;13.456;2023-01-08T08:11:29;7.00;;;4.22;;
70078;SDS011;57451;52.496;13.456;2023-01-08T08:13:56;8.18;;;4.50;;
70078;SDS011;57451;52.496;13.456;2023-01-08T08:16:23;6.95;;;4.25;;
70078;SDS011;57451;52.496;13.456;2023-01-08T08:18:51;6.88;;;3.80;;
70078;SDS011;57451;52.496;13.456;2023-01-08T08:21:19;8.40;;;4.60;;
70078;SDS011;57451;52.496;13.456;2023-01-08T08:23:46;7.43;;;4.18;;
70078;SDS011;57451;52.496;13.456;2023-01-08T08:26:14;8.05;;;4.85;;
70078;SDS011;57451;52.496;13.456;2023-01-08T08:28:41;7.75;;;4.13;;
70078;SDS011;57451;52.496;13.456;2023-01-08T08:31:08;8.60;;;4.20;;
70078;SDS011;57451;52.496;13.456;2023-01-08T08:33:35;8.40;;;4.23;;
70078;SDS011;57451;52.496;13.456;2023-01-08T08:36:03;7.90;;;4.03;;
70078;SDS011;57451;52.496;13.456;2023-01-08T08:38:32;8.45;;;4.13;;
70078;SDS011;57451;52.496;13.456;2023-01-08T08:40:59;8.65;;;4.30;;
70078;SDS011;57451;52.496;13.456;2023-01-08T08:43:27;5.70;;;3.70;;
70078;SDS011;57451;52.496;13.456;2023-01-08T08:45:54;7.43;;;3.63;;
70078;SDS011;57451;52.496;13.456;2023-01-08T08:48:21;7.05;;;4.13;;
70078;SDS011;57451;52.496;13.456;2023-01-08T08:50:49;7.40;;;3.80;;
70078;SDS011;57451;52.496;13.456;2023-01-08T08:53:16;7.70;;;4.30;;
70078;SDS011;57451;52.496;13.456;2023-01-08T08:55:45;8.35;;;4.15;;
70078;SDS011;57451;52.496;13.456;2023-01-08T08:58:12;8.20;;;3.90;;
70078;SDS011;57451;52.496;13.456;2023-01-08T09:00:40;7.22;;;4.10;;
70078;SDS011;57451;52.496;13.456;2023-01-08T09:03:09;9.60;;;4.10;;
70078;SDS011;57451;52.496;13.456;2023-01-08T09:05:39;8.45;;;4.30;;
70078;SDS011;57451;52.496;13.456;2023-01-08T09:08:06;7.43;;;4.53;;
70078;SDS011;57451;52.496;13.456;2023-01-08T09:10:35;9.43;;;4.57;;
70078;SDS011;57451;52.496;13.456;2023-01-08T09:13:04;8.45;;;4.18;;
70078;SDS011;57451;52.496;13.456;2023-01-08T09:15:31;7.78;;;4.22;;
70078;SDS011;57451;52.496;13.456;2023-01-08T09:17:58;8.05;;;4.57;;
70078;SDS011;57451;52.496;13.456;2023-01-08T09:20:26;8.05;;;4.40;;
70078;SDS011;57451;52.496;13.456;2023-01-08T09:22:53;6.70;;;4.30;;
70078;SDS011;57451;52.496;13.456;2023-01-08T09:25:23;8.38;;;4.00;;
70078;SDS011;57451;52.496;13.456;2023-01-08T09:27:57;6.90;;;3.92;;
70078;SDS011;57451;52.496;13.456;2023-01-08T09:30:26;6.78;;;4.18;;
70078;SDS011;57451;52.496;13.456;2023-01-08T09:32:57;6.90;;;3.85;;
70078;SDS011;57451;52.496;13.456;2023-01-08T09:35:28;7.00;;;3.80;;
70078;SDS011;57451;52.496;13.456;2023-01-08T09:37:56;6.65;;;3.60;;
70078;SDS011;57451;52.496;13.456;2023-01-08T09:40:24;7.13;;;3.92;;
70078;SDS011;57451;52.496;13.456;2023-01-08T09:42:56;6.60;;;3.90;;
70078;SDS011;57451;52.496;13.456;2023-01-08T09:45:28;7.35;;;3.83;;
70078;SDS011;57451;52.496;13.456;2023-01-08T09:47:57;8.17;;;3.50;;
70078;SDS011;57451;52.496;13.456;2023-01-08T09:50:27;9.52;;;3.97;;
70078;SDS011;57451;52.496;13.456;2023-01-08T09:52:57;7.15;;;3.88;;
70078;SDS011;57451;52.496;13.456;2023-01-08T09:55:26;8.32;;;3.78;;
70078;SDS011;57451;52.496;13.456;2023-01-08T09:57:55;7.15;;;3.80;;
70078;SDS011;57451;52.496;13.456;2023-01-08T10:00:23;6.60;;;3.73;;
70078;SDS011;57451;52.496;13.456;2023-01-08T10:02:55;8.55;;;3.80;;
70078;SDS011;57451;52.496;13.456;2023-01-08T10:05:24;7.07;;;3.65;;
70078;SDS011;57451;52.496;13.456;2023-01-08T10:07:52;6.97;;;3.50;;
70078;SDS011;57451;52.496;13.456;2023-01-08T10:10:20;7.00;;;3.70;;
70078;SDS011;57451;52.496;13.456;2023-01-08T10:12:49;8.50;;;3.90;;
70078;SDS011;57451;52.496;13.456;2023-01-08T10:15:18;6.82;;;3.90;;
70078;SDS011;57451;52.496;13.456;2023-01-08T10:17:47;8.93;;;4.05;;
70078;SDS011;57451;52.496;13.456;2023-01-08T10:20:21;8.05;;;3.95;;
70078;SDS011;57451;52.496;13.456;2023-01-08T10:22:51;10.15;;;4.40;;
70078;SDS011;57451;52.496;13.456;2023-01-08T10:25:26;6.53;;;3.70;;
70078;SDS011;57451;52.496;13.456;2023-01-08T10:27:56;9.05;;;4.15;;
70078;SDS011;57451;52.496;13.456;2023-01-08T10:30:28;7.07;;;3.42;;
70078;SDS011;57451;52.496;13.456;2023-01-08T10:33:01;7.20;;;3.80;;
70078;SDS011;57451;52.496;13.456;2023-01-08T10:35:33;6.53;;;3.67;;
70078;SDS011;57451;52.496;13.456;2023-01-08T10:38:03;8.43;;;4.17;;
70078;SDS011;57451;52.496;13.456;2023-01-08T10:40:33;8.00;;;4.32;;
70078;SDS011;57451;52.496;13.456;2023-01-08T10:43:04;7.93;;;4.10;;
70078;SDS011;57451;52.496;13.456;2023-01-08T10:45:37;8.98;;;4.40;;
70078;SDS011;57451;52.496;13.456;2023-01-08T10:48:05;8.10;;;4.43;;
70078;SDS011;57451;52.496;13.456;2023-01-08T10:50:40;8.27;;;4.13;;
70078;SDS011;57451;52.496;13.456;2023-01-08T10:53:19;7.25;;;4.03;;
70078;SDS011;57451;52.496;13.456;2023-01-08T10:55:56;7.72;;;4.20;;
70078;SDS011;57451;52.496;13.456;2023-01-08T10:58:26;7.03;;;3.88;;
70078;SDS011;57451;52.496;13.456;2023-01-08T11:00:54;8.05;;;4.32;;
70078;SDS011;57451;52.496;13.456;2023-01-08T11:03:34;7.90;;;4.17;;
70078;SDS011;57451;52.496;13.456;2023-01-08T11:06:10;8.30;;;3.63;;
70078;SDS011;57451;52.496;13.456;2023-01-08T11:08:38;7.32;;;4.07;;
70078;SDS011;57451;52.496;13.456;2023-01-08T11:11:17;7.25;;;4.35;;
70078;SDS011;57451;52.496;13.456;2023-01-08T11:13:54;8.73;;;4.32;;
70078;SDS011;57451;52.496;13.456;2023-01-08T11:16:31;8.13;;;4.27;;
70078;SDS011;57451;52.496;13.456;2023-01-08T11:19:02;7.82;;;4.22;;
70078;SDS011;57451;52.496;13.456;2023-01-08T11:21:32;9.60;;;4.35;;
70078;SDS011;57451;52.496;13.456;2023-01-08T11:24:14;8.63;;;4.32;;
70078;SDS011;57451;52.496;13.456;2023-01-08T11:26:44;8.13;;;4.35;;
70078;SDS011;57451;52.496;13.456;2023-01-08T11:29:19;7.43;;;4.10;;
70078;SDS011;57451;52.496;13.456;2023-01-08T11:31:51;7.95;;;4.03;;
70078;SDS011;57451;52.496;13.456;2023-01-08T11:34:25;6.80;;;3.72;;
70078;SDS011;57451;52.496;13.456;2023-01-08T11:37:00;7.80;;;4.55;;
70078;SDS011;57451;52.496;13.456;2023-01-08T11:39:34;7.43;;;4.57;;
70078;SDS011;57451;52.496;13.456;2023-01-08T11:42:10;8.80;;;4.83;;
70078;SDS011;57451;52.496;13.456;2023-01-08T11:44:48;7.95;;;4.22;;
70078;SDS011;57451;52.496;13.456;2023-01-08T11:47:26;8.40;;;4.57;;
70078;SDS011;57451;52.496;13.456;2023-01-08T11:50:08;7.50;;;4.63;;
70078;SDS011;57451;52.496;13.456;2023-01-08T11:52:43;8.70;;;4.97;;
70078;SDS011;57451;52.496;13.456;2023-01-08T11:55:22;8.73;;;4.90;;
70078;SDS011;57451;52.496;13.456;2023-01-08T11:58:02;8.70;;;4.80;;
70078;SDS011;57451;52.496;13.456;2023-01-08T12:00:52;8.13;;;4.65;;
70078;SDS011;57451;52.496;13.456;2023-01-08T12:03:36;8.43;;;4.45;;
70078;SDS011;57451;52.496;13.456;2023-01-08T12:06:13;8.77;;;4.57;;
70078;SDS011;57451;52.496;13.456;2023-01-08T12:08:57;10.43;;;4.57;;
70078;SDS011;57451;52.496;13.456;2023-01-08T12:11:37;10.82;;;4.70;;
70078;SDS011;57451;52.496;13.456;2023-01-08T12:14:18;8.02;;;4.22;;
70078;SDS011;57451;52.496;13.456;2023-01-08T12:16:59;8.38;;;4.78;;
70078;SDS011;57451;52.496;13.456;2023-01-08T12:19:40;9.07;;;4.97;;
70078;SDS011;57451;52.496;13.456;2023-01-08T12:22:25;11.67;;;4.80;;
70078;SDS011;57451;52.496;13.456;2023-01-08T12:25:06;9.00;;;4.72;;
70078;SDS011;57451;52.496;13.456;2023-01-08T12:27:48;10.13;;;5.20;;
70078;SDS011;57451;52.496;13.456;2023-01-08T12:30:25;9.75;;;4.93;;
70078;SDS011;57451;52.496;13.456;2023-01-08T12:33:03;11.40;;;5.40;;
70078;SDS011;57451;52.496;13.456;2023-01-08T12:35:35;8.73;;;4.70;;
70078;SDS011;57451;52.496;13.456;2023-01-08T12:38:08;8.93;;;4.65;;
70078;SDS011;57451;52.496;13.456;2023-01-08T12:40:41;7.78;;;4.45;;
70078;SDS011;57451;52.496;13.456;2023-01-08T12:43:12;11.23;;;4.25;;
70078;SDS011;57451;52.496;13.456;2023-01-08T12:45:44;9.82;;;4.90;;
70078;SDS011;57451;52.496;13.456;2023-01-08T12:48:14;8.63;;;5.00;;
70078;SDS011;57451;52.496;13.456;2023-01-08T12:50:46;7.63;;;4.22;;
70078;SDS011;57451;52.496;13.456;2023-01-08T12:53:20;8.13;;;4.85;;
70078;SDS011;57451;52.496;13.456;2023-01-08T12:56:00;8.75;;;4.65;;
70078;SDS011;57451;52.496;13.456;2023-01-08T12:58:33;8.70;;;4.43;;
70078;SDS011;57451;52.496;13.456;2023-01-08T13:01:20;11.53;;;5.20;;
70078;SDS011;57451;52.496;13.456;2023-01-08T13:03:53;9.82;;;5.20;;
70078;SDS011;57451;52.496;13.456;2023-01-08T13:06:21;8.25;;;4.65;;
70078;SDS011;57451;52.496;13.456;2023-01-08T13:08:49;9.15;;;4.82;;
70078;SDS011;57451;52.496;13.456;2023-01-08T13:11:24;8.75;;;4.75;;
70078;SDS011;57451;52.496;13.456;2023-01-08T13:13:57;7.63;;;4.67;;
70078;SDS011;57451;52.496;13.456;2023-01-08T13:16:26;9.85;;;5.07;;
70078;SDS011;57451;52.496;13.456;2023-01-08T13:18:54;9.40;;;5.10;;
70078;SDS011;57451;52.496;13.456;2023-01-08T13:21:26;8.57;;;4.10;;
70078;SDS011;57451;52.496;13.456;2023-01-08T13:24:19;10.65;;;5.10;;
70078;SDS011;57451;52.496;13.456;2023-01-08T13:26:56;8.80;;;4.87;;
70078;SDS011;57451;52.496;13.456;2023-01-08T13:29:36;9.43;;;4.55;;
70078;SDS011;57451;52.496;13.456;2023-01-08T13:32:21;7.85;;;4.30;;
70078;SDS011;57451;52.496;13.456;2023-01-08T13:34:59;9.52;;;5.35;;
70078;SDS011;57451;52.496;13.456;2023-01-08T13:37:48;8.75;;;4.68;;
70078;SDS011;57451;52.496;13.456;2023-01-08T13:40:36;11.77;;;4.70;;
70078;SDS011;57451;52.496;13.456;2023-01-08T13:43:10;9.02;;;4.70;;
70078;SDS011;57451;52.496;13.456;2023-01-08T13:45:39;10.70;;;4.88;;
70078;SDS011;57451;52.496;13.456;2023-01-08T13:48:18;11.18;;;5.07;;
70078;SDS011;57451;52.496;13.456;2023-01-08T13:50:48;8.55;;;5.00;;
70078;SDS011;57451;52.496;13.456;2023-01-08T13:53:16;10.53;;;5.30;;
70078;SDS011;57451;52.496;13.456;2023-01-08T13:55:46;9.98;;;5.38;;
70078;SDS011;57451;52.496;13.456;2023-01-08T13:58:24;8.57;;;5.03;;
70078;SDS011;57451;52.496;13.456;2023-01-08T14:00:56;8.75;;;4.82;;
70078;SDS011;57451;52.496;13.456;2023-01-08T14:03:26;9.77;;;5.35;;
70078;SDS011;57451;52.496;13.456;2023-01-08T14:06:03;10.00;;;5.47;;
70078;SDS011;57451;52.496;13.456;2023-01-08T14:08:32;11.25;;;5.32;;
70078;SDS011;57451;52.496;13.456;2023-01-08T14:11:00;7.70;;;4.80;;
70078;SDS011;57451;52.496;13.456;2023-01-08T14:13:30;9.05;;;5.88;;
70078;SDS011;57451;52.496;13.456;2023-01-08T14:16:01;9.80;;;5.25;;
70078;SDS011;57451;52.496;13.456;2023-01-08T14:18:31;9.53;;;5.50;;
70078;SDS011;57451;52.496;13.456;2023-01-08T14:21:13;8.80;;;5.13;;
70078;SDS011;57451;52.496;13.456;2023-01-08T14:23:46;10.95;;;5.68;;
70078;SDS011;57451;52.496;13.456;2023-01-08T14:26:17;9.82;;;5.25;;
70078;SDS011;57451;52.496;13.456;2023-01-08T14:28:51;10.90;;;4.90;;
70078;SDS011;57451;52.496;13.456;2023-01-08T14:31:20;10.17;;;6.30;;
70078;SDS011;57451;52.496;13.456;2023-01-08T14:33:49;11.38;;;5.90;;
70078;SDS011;57451;52.496;13.456;2023-01-08T14:36:19;10.52;;;5.07;;
70078;SDS011;57451;52.496;13.456;2023-01-08T14:38:47;10.35;;;5.60;;
70078;SDS011;57451;52.496;13.456;2023-01-08T14:41:20;10.85;;;5.85;;
70078;SDS011;57451;52.496;13.456;2023-01-08T14:44:17;9.73;;;5.70;;
70078;SDS011;57451;52.496;13.456;2023-01-08T14:46:55;10.32;;;5.28;;
70078;SDS011;57451;52.496;13.456;2023-01-08T14:49:23;10.43;;;6.55;;
70078;SDS011;57451;52.496;13.456;2023-01-08T14:51:53;11.60;;;5.93;;
70078;SDS011;57451;52.496;13.456;2023-01-08T14:54:22;12.00;;;6.35;;
70078;SDS011;57451;52.496;13.456;2023-01-08T14:56:55;10.50;;;6.07;;